createdAt,value
2018-04-27T00:00:10.285Z,0.00
2018-04-27T00:01:10.291Z,0.00
2018-04-27T00:02:10.307Z,0.00
2018-04-27T00:03:10.309Z,0.00
2018-04-27T00:04:10.325Z,0.00
2018-04-27T00:05:10.406Z,0.00
2018-04-27T00:06:10.344Z,0.00
2018-04-27T00:07:10.348Z,0.00
2018-04-27T00:08:10.371Z,0.00
2018-04-27T00:09:10.367Z,0.00
2018-04-27T00:10:10.376Z,0.00
2018-04-27T00:11:10.389Z,0.00
2018-04-27T00:12:10.395Z,0.00
2018-04-27T00:13:10.404Z,0.00
2018-04-27T00:14:10.414Z,0.00
2018-04-27T00:15:10.423Z,0.00
2018-04-27T00:16:10.438Z,0.00
2018-04-27T00:17:10.451Z,0.00
2018-04-27T00:18:10.449Z,0.00
2018-04-27T00:19:10.466Z,0.00
2018-04-27T00:20:10.479Z,0.00
2018-04-27T00:21:10.476Z,0.00
2018-04-27T00:22:10.484Z,0.00
2018-04-27T00:23:10.501Z,0.00
2018-04-27T00:24:10.504Z,0.00
2018-04-27T00:25:10.511Z,0.00
2018-04-27T00:26:10.520Z,0.00
2018-04-27T00:27:10.530Z,0.00
2018-04-27T00:28:10.539Z,0.00
2018-04-27T00:29:10.557Z,0.00
2018-04-27T00:30:10.553Z,0.00
2018-04-27T00:31:10.570Z,0.00
2018-04-27T00:32:10.579Z,0.00
2018-04-27T00:33:10.593Z,0.00
2018-04-27T00:34:10.594Z,0.00
2018-04-27T00:35:10.626Z,0.00
2018-04-27T00:36:10.614Z,0.00
2018-04-27T00:37:10.619Z,0.00
2018-04-27T00:38:10.636Z,0.00
2018-04-27T00:39:10.643Z,0.00
2018-04-27T00:40:10.651Z,0.00
2018-04-27T00:41:10.662Z,0.00
2018-04-27T00:42:10.674Z,0.00
2018-04-27T00:43:10.680Z,0.00
2018-04-27T00:44:10.687Z,0.00
2018-04-27T00:45:10.692Z,0.00
2018-04-27T00:46:10.702Z,0.00
2018-04-27T00:47:10.714Z,0.00
2018-04-27T00:48:10.723Z,0.00
2018-04-27T00:49:10.729Z,0.00
2018-04-27T00:50:10.744Z,0.00
2018-04-27T00:51:10.750Z,0.00
2018-04-27T00:52:10.757Z,0.00
2018-04-27T00:53:10.765Z,0.00
2018-04-27T00:54:10.772Z,0.00
2018-04-27T00:55:10.783Z,0.00
2018-04-27T00:56:10.795Z,0.00
2018-04-27T00:57:10.803Z,0.00
2018-04-27T00:58:10.810Z,0.00
2018-04-27T00:59:10.816Z,0.00
2018-04-27T01:00:10.834Z,0.00
2018-04-27T01:01:10.836Z,0.00
2018-04-27T01:02:10.849Z,0.00
2018-04-27T01:03:10.856Z,0.00
2018-04-27T01:04:10.865Z,0.00
2018-04-27T01:05:10.875Z,0.00
2018-04-27T01:06:10.882Z,0.00
2018-04-27T01:07:10.900Z,0.00
2018-04-27T01:08:10.909Z,0.00
2018-04-27T01:09:10.908Z,0.00
2018-04-27T01:10:10.922Z,0.00
2018-04-27T01:11:10.933Z,0.00
2018-04-27T01:12:10.936Z,0.00
2018-04-27T01:13:10.955Z,0.00
2018-04-27T01:14:10.958Z,0.00
2018-04-27T01:15:10.965Z,0.00
2018-04-27T01:16:10.972Z,0.00
2018-04-27T01:17:10.981Z,0.00
2018-04-27T01:18:10.987Z,0.00
2018-04-27T01:19:11.000Z,0.00
2018-04-27T01:20:11.007Z,0.00
2018-04-27T01:21:11.017Z,0.00
2018-04-27T01:22:11.052Z,0.00
2018-04-27T01:23:11.036Z,0.00
2018-04-27T01:24:11.077Z,0.00
2018-04-27T01:25:11.061Z,0.00
2018-04-27T01:26:11.060Z,0.00
2018-04-27T01:27:11.073Z,0.00
2018-04-27T01:28:11.118Z,0.00
2018-04-27T01:29:11.093Z,0.00
2018-04-27T01:30:11.098Z,0.00
2018-04-27T01:31:11.103Z,0.00
2018-04-27T01:32:11.113Z,0.00
2018-04-27T01:33:11.120Z,0.00
2018-04-27T01:34:11.142Z,0.00
2018-04-27T01:35:11.140Z,0.00
2018-04-27T01:36:11.158Z,0.00
2018-04-27T01:37:11.159Z,0.00
2018-04-27T01:38:11.169Z,0.00
2018-04-27T01:39:11.173Z,0.00
2018-04-27T01:40:11.199Z,0.00
2018-04-27T01:41:11.195Z,0.00
2018-04-27T01:42:11.206Z,0.00
2018-04-27T01:43:11.209Z,0.00
2018-04-27T01:44:11.223Z,0.00
2018-04-27T01:45:11.233Z,0.00
2018-04-27T01:46:11.239Z,0.00
2018-04-27T01:47:11.251Z,0.00
2018-04-27T01:48:11.255Z,0.00
2018-04-27T01:49:11.265Z,0.00
2018-04-27T01:50:11.272Z,0.00
2018-04-27T01:51:11.280Z,0.00
2018-04-27T01:52:11.297Z,0.00
2018-04-27T01:53:11.306Z,0.00
2018-04-27T01:54:11.312Z,0.00
2018-04-27T01:55:11.324Z,0.00
2018-04-27T01:56:11.329Z,0.00
2018-04-27T01:57:11.334Z,0.00
2018-04-27T01:58:11.348Z,0.00
2018-04-27T01:59:11.355Z,0.00
2018-04-27T02:00:11.370Z,0.00
2018-04-27T02:01:11.370Z,0.00
2018-04-27T02:02:11.380Z,0.00
2018-04-27T02:03:11.396Z,0.00
2018-04-27T02:04:11.399Z,0.00
2018-04-27T02:05:11.404Z,0.00
2018-04-27T02:06:11.416Z,0.00
2018-04-27T02:07:11.464Z,0.00
2018-04-27T02:08:11.432Z,0.00
2018-04-27T02:09:11.449Z,0.00
2018-04-27T02:10:11.451Z,0.00
2018-04-27T02:11:11.462Z,0.00
2018-04-27T02:12:11.469Z,0.00
2018-04-27T02:13:11.519Z,0.00
2018-04-27T02:14:11.490Z,0.00
2018-04-27T02:15:11.495Z,0.00
2018-04-27T02:16:11.505Z,0.00
2018-04-27T02:17:11.513Z,0.00
2018-04-27T02:18:11.521Z,0.00
2018-04-27T02:19:11.539Z,0.00
2018-04-27T02:20:11.547Z,0.00
2018-04-27T02:21:11.546Z,0.00
2018-04-27T02:22:11.556Z,0.00
2018-04-27T02:23:11.565Z,0.00
2018-04-27T02:24:11.578Z,0.00
2018-04-27T02:25:11.590Z,0.00
2018-04-27T02:26:11.590Z,0.00
2018-04-27T02:27:11.600Z,0.00
2018-04-27T02:28:11.609Z,0.00
2018-04-27T02:29:11.617Z,0.00
2018-04-27T02:30:11.626Z,0.00
2018-04-27T02:31:11.639Z,0.00
2018-04-27T02:32:11.644Z,0.00
2018-04-27T02:33:11.658Z,0.00
2018-04-27T02:34:11.662Z,0.00
2018-04-27T02:35:11.668Z,0.00
2018-04-27T02:36:11.679Z,0.00
2018-04-27T02:37:11.684Z,0.00
2018-04-27T02:38:11.694Z,0.00
2018-04-27T02:39:11.701Z,0.00
2018-04-27T02:40:11.722Z,0.00
2018-04-27T02:41:11.725Z,0.00
2018-04-27T02:42:11.727Z,0.00
2018-04-27T02:43:11.742Z,0.00
2018-04-27T02:44:11.745Z,0.00
2018-04-27T02:45:11.753Z,0.00
2018-04-27T02:46:11.789Z,0.00
2018-04-27T02:47:11.772Z,0.00
2018-04-27T02:48:11.785Z,0.00
2018-04-27T02:49:11.788Z,0.00
2018-04-27T02:50:11.795Z,0.00
2018-04-27T02:51:11.804Z,0.00
2018-04-27T02:52:11.815Z,0.00
2018-04-27T02:53:12.409Z,0.00
2018-04-27T02:54:11.834Z,0.00
2018-04-27T02:55:11.838Z,0.00
2018-04-27T02:56:11.849Z,0.00
2018-04-27T02:57:12.572Z,0.00
2018-04-27T02:58:11.965Z,0.00
2018-04-27T02:59:11.874Z,0.00
2018-04-27T03:00:11.885Z,0.00
2018-04-27T03:01:11.891Z,0.00
2018-04-27T03:02:12.911Z,0.00
2018-04-27T03:03:11.909Z,0.00
2018-04-27T03:04:11.930Z,0.00
2018-04-27T03:05:11.924Z,0.00
2018-04-27T03:06:11.939Z,0.00
2018-04-27T03:07:11.953Z,0.00
2018-04-27T03:08:11.953Z,0.00
2018-04-27T03:09:11.966Z,0.00
2018-04-27T03:10:11.972Z,0.00
2018-04-27T03:11:11.977Z,0.00
2018-04-27T03:12:11.985Z,0.00
2018-04-27T03:13:12.020Z,0.00
2018-04-27T03:14:12.911Z,0.00
2018-04-27T03:15:12.010Z,0.00
2018-04-27T03:16:12.033Z,0.00
2018-04-27T03:17:12.027Z,0.00
2018-04-27T03:18:12.042Z,0.00
2018-04-27T03:19:12.043Z,0.00
2018-04-27T03:20:12.057Z,0.00
2018-04-27T03:21:12.061Z,0.00
2018-04-27T03:22:12.095Z,0.00
2018-04-27T03:23:12.087Z,0.00
2018-04-27T03:24:12.092Z,0.00
2018-04-27T03:25:12.095Z,0.00
2018-04-27T03:26:12.102Z,0.00
2018-04-27T03:27:12.123Z,0.00
2018-04-27T03:28:12.136Z,0.00
2018-04-27T03:29:12.127Z,0.00
2018-04-27T03:30:12.137Z,0.00
2018-04-27T03:31:12.147Z,0.00
2018-04-27T03:32:12.192Z,0.00
2018-04-27T03:33:12.162Z,0.00
2018-04-27T03:34:12.174Z,0.00
2018-04-27T03:35:12.179Z,0.00
2018-04-27T03:36:12.186Z,0.00
2018-04-27T03:37:12.200Z,0.00
2018-04-27T03:38:12.209Z,0.00
2018-04-27T03:39:12.217Z,0.00
2018-04-27T03:40:12.228Z,0.00
2018-04-27T03:41:12.266Z,0.00
2018-04-27T03:42:12.239Z,0.00
2018-04-27T03:43:12.245Z,0.00
2018-04-27T03:44:12.261Z,0.00
2018-04-27T03:45:12.261Z,0.00
2018-04-27T03:46:12.270Z,0.00
2018-04-27T03:47:12.285Z,0.00
2018-04-27T03:48:12.292Z,0.00
2018-04-27T03:49:12.307Z,0.00
2018-04-27T03:50:12.304Z,0.00
2018-04-27T03:51:12.312Z,0.00
2018-04-27T03:52:12.326Z,0.00
2018-04-27T03:53:12.326Z,0.00
2018-04-27T03:54:12.339Z,0.00
2018-04-27T03:55:12.350Z,0.00
2018-04-27T03:56:12.358Z,0.00
2018-04-27T03:57:12.372Z,0.00
2018-04-27T03:58:12.373Z,0.00
2018-04-27T03:59:12.385Z,0.00
2018-04-27T04:00:12.389Z,0.00
2018-04-27T04:01:12.441Z,0.00
2018-04-27T04:02:12.411Z,0.00
2018-04-27T04:03:12.419Z,0.00
2018-04-27T04:04:12.467Z,0.00
2018-04-27T04:05:12.427Z,0.00
2018-04-27T04:06:12.437Z,0.00
2018-04-27T04:07:12.447Z,0.00
2018-04-27T04:08:12.456Z,0.00
2018-04-27T04:09:12.458Z,0.00
2018-04-27T04:10:12.468Z,5.63
2018-04-27T04:11:12.477Z,5.63
2018-04-27T04:12:12.503Z,5.63
2018-04-27T04:13:12.493Z,5.63
2018-04-27T04:14:12.498Z,5.63
2018-04-27T04:15:12.531Z,5.63
2018-04-27T04:16:12.517Z,5.63
2018-04-27T04:17:12.522Z,11.25
2018-04-27T04:18:12.539Z,11.25
2018-04-27T04:19:12.543Z,11.25
2018-04-27T04:20:13.017Z,11.25
2018-04-27T04:21:12.563Z,11.25
2018-04-27T04:22:12.564Z,11.25
2018-04-27T04:23:12.580Z,16.88
2018-04-27T04:24:12.716Z,16.88
2018-04-27T04:25:12.597Z,16.88
2018-04-27T04:26:12.597Z,16.88
2018-04-27T04:27:12.616Z,16.88
2018-04-27T04:28:12.616Z,22.50
2018-04-27T04:29:12.627Z,22.50
2018-04-27T04:30:12.646Z,22.50
2018-04-27T04:31:12.639Z,22.50
2018-04-27T04:32:12.659Z,28.13
2018-04-27T04:33:12.655Z,28.13
2018-04-27T04:34:12.674Z,28.13
2018-04-27T04:35:12.670Z,33.75
2018-04-27T04:36:12.682Z,33.75
2018-04-27T04:37:12.706Z,33.75
2018-04-27T04:38:12.705Z,33.75
2018-04-27T04:39:12.712Z,39.38
2018-04-27T04:40:12.767Z,39.38
2018-04-27T04:41:12.725Z,39.38
2018-04-27T04:42:12.728Z,39.38
2018-04-27T04:43:12.735Z,39.38
2018-04-27T04:44:12.745Z,39.38
2018-04-27T04:45:12.827Z,45.00
2018-04-27T04:46:12.767Z,45.00
2018-04-27T04:47:12.769Z,45.00
2018-04-27T04:48:12.777Z,45.00
2018-04-27T04:49:12.784Z,45.00
2018-04-27T04:50:12.799Z,45.00
2018-04-27T04:51:12.801Z,45.00
2018-04-27T04:52:12.815Z,45.00
2018-04-27T04:53:12.841Z,45.00
2018-04-27T04:54:12.828Z,45.00
2018-04-27T04:55:12.836Z,50.63
2018-04-27T04:56:12.853Z,50.63
2018-04-27T04:57:12.851Z,50.63
2018-04-27T04:58:12.863Z,50.63
2018-04-27T04:59:12.877Z,50.63
2018-04-27T05:00:12.882Z,56.25
2018-04-27T05:01:12.881Z,56.25
2018-04-27T05:02:12.891Z,56.25
2018-04-27T05:03:12.899Z,56.25
2018-04-27T05:04:12.908Z,56.25
2018-04-27T05:05:12.914Z,56.25
2018-04-27T05:06:12.924Z,56.25
2018-04-27T05:07:12.931Z,56.25
2018-04-27T05:08:13.027Z,61.88
2018-04-27T05:09:12.947Z,61.88
2018-04-27T05:10:12.956Z,61.88
2018-04-27T05:11:12.966Z,61.88
2018-04-27T05:12:12.973Z,61.88
2018-04-27T05:13:12.981Z,61.88
2018-04-27T05:14:12.990Z,61.88
2018-04-27T05:15:13.000Z,61.88
2018-04-27T05:16:13.015Z,61.88
2018-04-27T05:17:13.011Z,61.88
2018-04-27T05:18:13.023Z,61.88
2018-04-27T05:19:13.033Z,61.88
2018-04-27T05:20:13.043Z,61.88
2018-04-27T05:21:13.085Z,61.88
2018-04-27T05:22:13.056Z,61.88
2018-04-27T05:23:13.097Z,61.88
2018-04-27T05:24:13.102Z,61.88
2018-04-27T05:25:13.083Z,61.88
2018-04-27T05:26:13.084Z,61.88
2018-04-27T05:27:13.094Z,67.50
2018-04-27T05:28:13.105Z,67.50
2018-04-27T05:29:13.134Z,67.50
2018-04-27T05:30:13.119Z,67.50
2018-04-27T05:31:13.132Z,73.13
2018-04-27T05:32:13.136Z,73.13
2018-04-27T05:33:13.146Z,78.75
2018-04-27T05:34:13.155Z,78.75
2018-04-27T05:35:13.163Z,78.75
2018-04-27T05:36:13.189Z,78.75
2018-04-27T05:37:13.177Z,78.75
2018-04-27T05:38:13.217Z,78.75
2018-04-27T05:39:13.228Z,78.75
2018-04-27T05:40:13.205Z,78.75
2018-04-27T05:41:13.214Z,84.38
2018-04-27T05:42:13.216Z,84.38
2018-04-27T05:43:13.247Z,84.38
2018-04-27T05:44:13.237Z,84.38
2018-04-27T05:45:13.242Z,84.38
2018-04-27T05:46:13.255Z,84.38
2018-04-27T05:47:13.264Z,84.38
2018-04-27T05:48:13.349Z,84.38
2018-04-27T05:49:13.275Z,84.38
2018-04-27T05:50:13.285Z,84.38
2018-04-27T05:51:13.302Z,84.38
2018-04-27T05:52:13.299Z,84.38
2018-04-27T05:53:13.309Z,84.38
2018-04-27T05:54:13.338Z,84.38
2018-04-27T05:55:13.333Z,84.38
2018-04-27T05:56:13.340Z,84.38
2018-04-27T05:57:13.342Z,84.38
2018-04-27T05:58:13.349Z,84.38
2018-04-27T05:59:13.360Z,84.38
2018-04-27T06:00:13.368Z,84.38
2018-04-27T06:01:13.376Z,84.38
2018-04-27T06:02:13.384Z,84.38
2018-04-27T06:03:13.394Z,84.38
2018-04-27T06:04:13.423Z,84.38
2018-04-27T06:05:13.411Z,84.38
2018-04-27T06:06:13.416Z,84.38
2018-04-27T06:07:13.427Z,84.38
2018-04-27T06:08:13.435Z,84.38
2018-04-27T06:09:13.443Z,90.00
2018-04-27T06:10:13.514Z,84.38
2018-04-27T06:11:13.505Z,90.00
2018-04-27T06:12:13.469Z,84.38
2018-04-27T06:13:13.481Z,90.00
2018-04-27T06:14:13.494Z,95.63
2018-04-27T06:15:13.500Z,90.00
2018-04-27T06:16:13.573Z,90.00
2018-04-27T06:17:13.511Z,95.63
2018-04-27T06:18:13.526Z,101.25
2018-04-27T06:19:13.560Z,95.63
2018-04-27T06:20:13.555Z,95.63
2018-04-27T06:21:13.558Z,95.63
2018-04-27T06:22:13.559Z,101.25
2018-04-27T06:23:13.569Z,95.63
2018-04-27T06:24:13.573Z,95.63
2018-04-27T06:25:13.585Z,95.63
2018-04-27T06:26:13.590Z,95.63
2018-04-27T06:27:13.617Z,95.63
2018-04-27T06:28:13.659Z,95.63
2018-04-27T06:29:13.658Z,101.25
2018-04-27T06:30:13.629Z,101.25
2018-04-27T06:31:13.636Z,101.25
2018-04-27T06:32:13.640Z,101.25
2018-04-27T06:33:13.651Z,101.25
2018-04-27T06:34:13.678Z,101.25
2018-04-27T06:35:13.667Z,101.25
2018-04-27T06:36:13.690Z,101.25
2018-04-27T06:37:22.558Z,101.25
2018-04-27T06:39:07.114Z,101.25
2018-04-27T06:40:07.099Z,101.25
2018-04-27T06:42:11.751Z,106.88
2018-04-27T06:43:11.612Z,106.88
2018-04-27T06:45:16.073Z,106.88
2018-04-27T06:46:16.130Z,106.88
2018-04-27T06:48:20.623Z,112.50
2018-04-27T06:49:20.766Z,112.50
2018-04-27T06:51:25.298Z,112.50
2018-04-27T06:52:25.121Z,112.50
2018-04-27T06:54:29.835Z,112.50
2018-04-27T06:55:29.651Z,112.50
2018-04-27T06:57:34.374Z,112.50
2018-04-27T06:58:34.167Z,112.50
2018-04-27T07:00:39.665Z,112.50
2018-04-27T07:01:39.817Z,112.50
2018-04-27T07:03:44.217Z,118.13
2018-04-27T07:04:44.474Z,123.75
2018-04-27T07:06:48.711Z,123.75
2018-04-27T07:07:48.880Z,123.75
2018-04-27T07:09:53.240Z,129.38
2018-04-27T07:10:53.248Z,129.38
2018-04-27T07:11:53.443Z,129.38
2018-04-27T07:12:53.493Z,123.75
2018-04-27T07:13:53.436Z,129.38
2018-04-27T07:14:53.515Z,123.75
2018-04-27T07:15:53.307Z,129.38
2018-04-27T07:16:53.344Z,129.38
2018-04-27T07:17:53.297Z,129.38
2018-04-27T07:18:56.186Z,129.38
2018-04-27T07:19:53.311Z,129.38
2018-04-27T07:20:53.375Z,129.38
2018-04-27T07:21:53.352Z,129.38
2018-04-27T07:22:53.342Z,129.38
2018-04-27T07:24:02.194Z,129.38
2018-04-27T07:25:57.920Z,135.00
2018-04-27T07:26:58.099Z,135.00
2018-04-27T07:28:52.436Z,135.00
2018-04-27T07:29:52.400Z,135.00
2018-04-27T07:30:52.393Z,129.38
2018-04-27T07:31:52.428Z,129.38
2018-04-27T07:32:52.479Z,135.00
2018-04-27T07:33:52.387Z,129.38
2018-04-27T07:34:52.390Z,135.00
2018-04-27T07:35:52.382Z,135.00
2018-04-27T07:36:52.398Z,129.38
2018-04-27T07:37:52.408Z,129.38
2018-04-27T07:38:52.447Z,129.38
2018-04-27T07:39:52.433Z,129.38
2018-04-27T07:40:52.429Z,129.38
2018-04-27T07:41:52.439Z,135.00
2018-04-27T07:42:52.455Z,140.63
2018-04-27T07:43:52.455Z,135.00
2018-04-27T07:44:52.478Z,135.00
2018-04-27T07:45:52.475Z,140.63
2018-04-27T07:46:52.486Z,135.00
2018-04-27T07:47:52.524Z,135.00
2018-04-27T07:48:52.513Z,140.63
2018-04-27T07:49:52.513Z,140.63
2018-04-27T07:50:52.529Z,140.63
2018-04-27T07:51:52.553Z,140.63
2018-04-27T07:52:52.589Z,140.63
2018-04-27T07:53:52.595Z,129.38
2018-04-27T07:54:52.586Z,129.38
2018-04-27T07:55:52.572Z,135.00
2018-04-27T07:56:52.614Z,135.00
2018-04-27T07:57:52.589Z,135.00
2018-04-27T07:58:52.659Z,135.00
2018-04-27T07:59:52.640Z,135.00
2018-04-27T08:00:52.622Z,129.38
2018-04-27T08:01:52.635Z,135.00
2018-04-27T08:02:52.671Z,140.63
2018-04-27T08:03:52.671Z,146.25
2018-04-27T08:04:52.660Z,146.25
2018-04-27T08:05:52.697Z,146.25
2018-04-27T08:06:52.681Z,140.63
2018-04-27T08:07:52.689Z,140.63
2018-04-27T08:08:52.720Z,135.00
2018-04-27T08:09:52.710Z,140.63
2018-04-27T08:10:52.719Z,135.00
2018-04-27T08:11:52.731Z,135.00
2018-04-27T08:12:52.748Z,135.00
2018-04-27T08:13:52.751Z,129.38
2018-04-27T08:14:52.783Z,140.63
2018-04-27T08:15:52.769Z,146.25
2018-04-27T08:16:52.779Z,146.25
2018-04-27T08:17:52.788Z,146.25
2018-04-27T08:18:52.804Z,146.25
2018-04-27T08:19:52.828Z,146.25
2018-04-27T08:20:52.820Z,140.63
2018-04-27T08:21:52.859Z,140.63
2018-04-27T08:22:52.839Z,146.25
2018-04-27T08:23:52.866Z,146.25
2018-04-27T08:24:52.869Z,146.25
2018-04-27T08:25:53.034Z,146.25
2018-04-27T08:26:52.951Z,146.25
2018-04-27T08:27:52.891Z,140.63
2018-04-27T08:28:52.899Z,151.88
2018-04-27T08:29:52.907Z,146.25
2018-04-27T08:30:52.949Z,140.63
2018-04-27T08:31:52.957Z,146.25
2018-04-27T08:32:52.937Z,146.25
2018-04-27T08:33:52.956Z,140.63
2018-04-27T08:34:52.959Z,146.25
2018-04-27T08:35:52.973Z,146.25
2018-04-27T08:36:52.987Z,140.63
2018-04-27T08:37:52.990Z,140.63
2018-04-27T08:38:53.013Z,146.25
2018-04-27T08:39:53.018Z,146.25
2018-04-27T08:40:53.020Z,146.25
2018-04-27T08:41:53.030Z,146.25
2018-04-27T08:42:53.052Z,146.25
2018-04-27T08:43:53.069Z,140.63
2018-04-27T08:44:53.070Z,146.25
2018-04-27T08:45:53.071Z,151.88
2018-04-27T08:46:53.086Z,151.88
2018-04-27T08:47:53.092Z,151.88
2018-04-27T08:48:53.103Z,151.88
2018-04-27T08:49:53.115Z,151.88
2018-04-27T08:50:53.135Z,151.88
2018-04-27T08:51:53.146Z,157.50
2018-04-27T08:52:53.150Z,157.50
2018-04-27T08:53:53.156Z,157.50
2018-04-27T08:54:53.166Z,157.50
2018-04-27T08:55:53.190Z,157.50
2018-04-27T08:56:53.192Z,157.50
2018-04-27T08:57:53.234Z,157.50
2018-04-27T08:58:53.209Z,157.50
2018-04-27T08:59:53.217Z,163.13
2018-04-27T09:00:53.552Z,163.13
2018-04-27T09:01:53.245Z,157.50
2018-04-27T09:02:53.251Z,157.50
2018-04-27T09:03:53.271Z,157.50
2018-04-27T09:04:53.274Z,157.50
2018-04-27T09:05:53.328Z,157.50
2018-04-27T09:06:53.317Z,157.50
2018-04-27T09:07:53.496Z,157.50
2018-04-27T09:08:53.909Z,157.50
2018-04-27T09:09:53.325Z,163.13
2018-04-27T09:10:53.343Z,163.13
2018-04-27T09:11:53.355Z,163.13
2018-04-27T09:12:53.362Z,163.13
2018-04-27T09:13:53.369Z,163.13
2018-04-27T09:14:53.376Z,163.13
2018-04-27T09:15:53.390Z,163.13
2018-04-27T09:16:53.401Z,163.13
2018-04-27T09:17:53.411Z,168.75
2018-04-27T09:18:53.432Z,168.75
2018-04-27T09:19:53.456Z,168.75
2018-04-27T09:20:53.513Z,168.75
2018-04-27T09:21:53.526Z,168.75
2018-04-27T09:22:53.613Z,168.75
2018-04-27T09:23:53.593Z,168.75
2018-04-27T09:24:53.497Z,168.75
2018-04-27T09:25:53.497Z,168.75
2018-04-27T09:26:53.602Z,168.75
2018-04-27T09:27:53.587Z,168.75
2018-04-27T09:28:53.731Z,174.38
2018-04-27T09:29:53.757Z,174.38
2018-04-27T09:30:53.556Z,174.38
2018-04-27T09:31:53.778Z,174.38
2018-04-27T09:32:53.734Z,180.00
2018-04-27T09:33:53.711Z,180.00
2018-04-27T09:34:53.674Z,180.00
2018-04-27T09:35:53.748Z,180.00
2018-04-27T09:36:53.640Z,180.00
2018-04-27T09:37:53.858Z,180.00
2018-04-27T09:38:53.772Z,180.00
2018-04-27T09:39:53.939Z,180.00
2018-04-27T09:40:53.786Z,185.63
2018-04-27T09:41:53.699Z,185.63
2018-04-27T09:42:53.707Z,191.25
2018-04-27T09:43:53.822Z,185.63
2018-04-27T09:44:53.709Z,185.63
2018-04-27T09:45:53.794Z,185.63
2018-04-27T09:46:53.785Z,191.25
2018-04-27T09:47:53.899Z,191.25
2018-04-27T09:48:53.763Z,185.63
2018-04-27T09:49:53.898Z,185.63
2018-04-27T09:50:53.790Z,185.63
2018-04-27T09:51:53.795Z,191.25
2018-04-27T09:52:53.997Z,185.63
2018-04-27T09:53:53.816Z,191.25
2018-04-27T09:54:53.815Z,191.25
2018-04-27T09:55:53.866Z,185.63
2018-04-27T09:56:53.855Z,191.25
2018-04-27T09:57:53.849Z,185.63
2018-04-27T09:58:53.863Z,185.63
2018-04-27T09:59:53.876Z,191.25
2018-04-27T10:00:54.163Z,191.25
2018-04-27T10:01:53.916Z,196.88
2018-04-27T10:02:53.904Z,191.25
2018-04-27T10:03:53.923Z,191.25
2018-04-27T10:04:53.926Z,191.25
2018-04-27T10:05:53.993Z,191.25
2018-04-27T10:06:54.106Z,196.88
2018-04-27T10:07:54.091Z,196.88
2018-04-27T10:08:54.032Z,196.88
2018-04-27T10:09:53.985Z,196.88
2018-04-27T10:10:54.013Z,196.88
2018-04-27T10:11:54.018Z,202.50
2018-04-27T10:12:54.019Z,202.50
2018-04-27T10:13:54.041Z,202.50
2018-04-27T10:14:54.054Z,196.88
2018-04-27T10:15:54.060Z,196.88
2018-04-27T10:16:54.068Z,202.50
2018-04-27T10:17:54.080Z,208.13
2018-04-27T10:18:54.119Z,208.13
2018-04-27T10:19:54.243Z,208.13
2018-04-27T10:20:54.207Z,208.13
2018-04-27T10:21:54.157Z,208.13
2018-04-27T10:22:54.135Z,208.13
2018-04-27T10:23:54.146Z,208.13
2018-04-27T10:24:54.179Z,208.13
2018-04-27T10:25:54.209Z,208.13
2018-04-27T10:26:54.231Z,213.75
2018-04-27T10:27:54.202Z,219.38
2018-04-27T10:28:54.225Z,213.75
2018-04-27T10:29:54.221Z,213.75
2018-04-27T10:30:54.392Z,219.38
2018-04-27T10:31:54.700Z,219.38
2018-04-27T10:32:54.498Z,225.00
2018-04-27T10:33:54.691Z,225.00
2018-04-27T10:34:54.355Z,225.00
2018-04-27T10:35:54.296Z,230.63
2018-04-27T10:36:54.334Z,225.00
2018-04-27T10:37:54.392Z,225.00
2018-04-27T10:38:54.357Z,225.00
2018-04-27T10:39:54.340Z,230.63
2018-04-27T10:40:54.488Z,230.63
2018-04-27T10:41:54.387Z,230.63
2018-04-27T10:42:54.478Z,230.63
2018-04-27T10:43:54.387Z,236.25
2018-04-27T10:44:54.406Z,241.88
2018-04-27T10:45:54.522Z,241.88
2018-04-27T10:46:54.663Z,247.50
2018-04-27T10:47:54.441Z,247.50
2018-04-27T10:48:54.705Z,253.13
2018-04-27T10:49:54.575Z,253.13
2018-04-27T10:50:54.922Z,253.13
2018-04-27T10:51:54.537Z,253.13
2018-04-27T10:52:54.526Z,258.75
2018-04-27T10:53:54.545Z,264.38
2018-04-27T10:54:54.549Z,264.38
2018-04-27T10:55:54.532Z,275.63
2018-04-27T10:56:54.548Z,275.63
2018-04-27T10:57:54.776Z,270.00
2018-04-27T10:58:54.574Z,281.25
2018-04-27T10:59:54.662Z,275.63
2018-04-27T11:00:54.603Z,281.25
2018-04-27T11:01:54.638Z,286.88
2018-04-27T11:02:54.698Z,292.50
2018-04-27T11:03:54.637Z,399.38
2018-04-27T11:04:54.669Z,1974.38
2018-04-27T11:05:54.732Z,3476.25
2018-04-27T11:06:54.670Z,3560.63
2018-04-27T11:07:54.687Z,3577.50
2018-04-27T11:08:54.700Z,3543.75
2018-04-27T11:09:54.716Z,3341.25
2018-04-27T11:10:54.762Z,3206.25
2018-04-27T11:11:54.775Z,3498.75
2018-04-27T11:12:54.946Z,4055.63
2018-04-27T11:13:54.771Z,4117.50
2018-04-27T11:14:54.863Z,3948.75
2018-04-27T11:15:54.804Z,4196.25
2018-04-27T11:16:55.107Z,4432.50
2018-04-27T11:17:54.901Z,4393.13
2018-04-27T11:18:54.859Z,4173.75
2018-04-27T11:19:54.881Z,4325.63
2018-04-27T11:20:54.932Z,4556.25
2018-04-27T11:21:54.937Z,4618.13
2018-04-27T11:22:54.931Z,4606.88
2018-04-27T11:23:54.960Z,4393.13
2018-04-27T11:24:54.970Z,4162.50
2018-04-27T11:25:55.011Z,4348.13
2018-04-27T11:26:55.011Z,4095.00
2018-04-27T11:27:55.036Z,3611.25
2018-04-27T11:28:55.074Z,3532.50
2018-04-27T11:29:55.077Z,3909.38
2018-04-27T11:30:55.110Z,4443.75
2018-04-27T11:31:55.119Z,4410.00
2018-04-27T11:32:55.141Z,4415.63
2018-04-27T11:33:55.168Z,4455.00
2018-04-27T11:34:55.186Z,4545.00
2018-04-27T11:35:55.213Z,4336.88
2018-04-27T11:36:55.233Z,3920.63
2018-04-27T11:37:55.257Z,4055.63
2018-04-27T11:38:55.284Z,3937.50
2018-04-27T11:39:55.327Z,3735.00
2018-04-27T11:40:55.324Z,3639.38
2018-04-27T11:41:55.352Z,3622.50
2018-04-27T11:42:55.372Z,3785.63
2018-04-27T11:43:55.395Z,3684.38
2018-04-27T11:44:55.430Z,3628.13
2018-04-27T11:45:55.450Z,3346.88
2018-04-27T11:46:55.542Z,3661.88
2018-04-27T11:47:55.499Z,4308.75
2018-04-27T11:48:55.529Z,4775.63
2018-04-27T11:49:55.560Z,5416.88
2018-04-27T11:50:55.565Z,5011.88
2018-04-27T11:51:55.601Z,3369.38
2018-04-27T11:52:55.624Z,2205.00
2018-04-27T11:53:55.644Z,2109.38
2018-04-27T11:54:55.668Z,2109.38
2018-04-27T11:55:55.692Z,2115.00
2018-04-27T11:56:55.714Z,2137.50
2018-04-27T11:57:55.736Z,2154.38
2018-04-27T11:58:55.765Z,2199.38
2018-04-27T11:59:55.788Z,2143.13
2018-04-27T12:00:55.829Z,2250.00
2018-04-27T12:01:55.844Z,2171.25
2018-04-27T12:02:55.915Z,2283.75
2018-04-27T12:03:55.894Z,2300.63
2018-04-27T12:04:55.924Z,2317.50
2018-04-27T12:05:55.940Z,2356.88
2018-04-27T12:06:55.965Z,2379.38
2018-04-27T12:07:55.996Z,2430.00
2018-04-27T12:08:56.078Z,2458.13
2018-04-27T12:09:56.074Z,2002.50
2018-04-27T12:10:56.081Z,2531.25
2018-04-27T12:11:56.099Z,2548.13
2018-04-27T12:12:56.206Z,2570.63
2018-04-27T12:13:56.154Z,2598.75
2018-04-27T12:14:56.224Z,2683.13
2018-04-27T12:15:56.281Z,2694.38
2018-04-27T12:16:56.887Z,2700.00
2018-04-27T12:17:56.310Z,2728.13
2018-04-27T12:18:56.333Z,2728.13
2018-04-27T12:19:56.307Z,2745.00
2018-04-27T12:20:56.539Z,2773.13
2018-04-27T12:21:56.469Z,2778.75
2018-04-27T12:22:56.525Z,2795.63
2018-04-27T12:23:56.504Z,2840.63
2018-04-27T12:24:56.646Z,2851.88
2018-04-27T12:25:56.618Z,2880.00
2018-04-27T12:26:56.493Z,2913.75
2018-04-27T12:27:56.520Z,2936.25
2018-04-27T12:28:56.549Z,2947.50
2018-04-27T12:29:56.574Z,2986.88
2018-04-27T12:30:56.647Z,2992.50
2018-04-27T12:31:56.678Z,3003.75
2018-04-27T12:32:56.657Z,3026.25
2018-04-27T12:33:56.681Z,3031.88
2018-04-27T12:34:56.712Z,3043.13
2018-04-27T12:35:56.745Z,3048.75
2018-04-27T12:36:56.764Z,3048.75
2018-04-27T12:37:56.795Z,3076.88
2018-04-27T12:38:56.905Z,3121.88
2018-04-27T12:39:56.867Z,3166.88
2018-04-27T12:40:56.880Z,3195.00
2018-04-27T12:41:56.903Z,3189.38
2018-04-27T12:42:56.926Z,3166.88
2018-04-27T12:43:56.970Z,3150.00
2018-04-27T12:44:57.030Z,3133.13
2018-04-27T12:45:57.011Z,3110.63
2018-04-27T12:46:57.038Z,3138.75
2018-04-27T12:47:57.068Z,3110.63
2018-04-27T12:48:57.103Z,3105.00
2018-04-27T12:49:57.131Z,3076.88
2018-04-27T12:50:57.152Z,3076.88
2018-04-27T12:51:57.200Z,3071.25
2018-04-27T12:52:57.211Z,3071.25
2018-04-27T12:53:57.239Z,3043.13
2018-04-27T12:54:57.287Z,3020.63
2018-04-27T12:55:57.299Z,3020.63
2018-04-27T12:56:57.320Z,2981.25
2018-04-27T12:57:57.360Z,3015.00
2018-04-27T12:58:57.384Z,3003.75